Time;durP1;ratioP1;P1;durP2;ratioP2;P2;SDS_P1;SDS_P2;PMS_P1;PMS_P2;Temp;Humidity;BMP_temperature;BMP_pressure;BME280_temperature;BME280_humidity;BME280_pressure;Samples;Min_cycle;Max_cycle;Signal;HPM_P1;HPM_P2
2021/05/20 00:02:42;;;;;;;0.90;0.25;;;;;;;18.14;49.28;100714.34;5039930;28;19913;-79
2021/05/20 00:05:27;;;;;;;0.77;0.20;;;;;;;18.14;49.20;100701.38;5040072;28;20061;-80
2021/05/20 00:08:12;;;;;;;;;;;;;;;18.17;49.32;100714.41;5043832;28;20052;-80
2021/05/20 00:14:01;;;;;;;2.10;0.40;;;;;;;18.13;49.13;100712.78;5037725;28;20048;-79
2021/05/20 00:16:46;;;;;;;2.88;0.20;;;;;;;18.15;49.14;100715.94;5042593;28;20731;-80
2021/05/20 00:19:31;;;;;;;;;;;;;;;18.15;49.10;100722.22;5043449;28;20044;-79
2021/05/20 00:22:16;;;;;;;1.15;0.20;;;;;;;18.13;49.17;100715.53;5037647;28;19913;-79
2021/05/20 00:25:20;;;;;;;1.80;0.38;;;;;;;18.15;49.13;100726.94;5032016;28;20072;-78
2021/05/20 00:28:05;;;;;;;0.25;0.20;;;;;;;18.12;48.94;100724.94;5034634;28;20052;-80
2021/05/20 00:30:50;;;;;;;;;;;;;;;18.15;49.12;100718.69;5034480;28;20060;-79
2021/05/20 00:36:38;;;;;;;2.50;1.17;;;;;;;18.10;49.02;100716.22;5037989;28;20052;-79
2021/05/20 00:39:42;;;;;;;;;;;;;;;18.13;49.05;100721.81;5033365;28;20048;-79
2021/05/20 00:42:27;;;;;;;0.40;0.28;;;;;;;18.10;49.04;100713.47;5049124;28;19913;-78
2021/05/20 00:45:14;;;;;;;0.95;0.50;;;;;;;18.10;48.96;100707.97;5042880;28;20044;-80
2021/05/20 00:47:58;;;;;;;0.57;0.20;;;;;;;18.08;48.97;100711.09;5035618;28;20052;-81
2021/05/20 00:50:43;;;;;;;;;;;;;;;18.10;48.84;100717.03;5035564;28;20048;-78
2021/05/20 00:56:52;;;;;;;1.65;0.50;;;;;;;18.08;48.79;100716.59;5034736;28;20060;-78
2021/05/20 00:59:37;;;;;;;0.65;0.20;;;;;;;18.05;48.67;100708.28;5031557;28;20060;-80
2021/05/20 01:02:22;;;;;;;2.33;0.80;;;;;;;18.06;48.59;100713.44;5030593;28;20053;-82
2021/05/20 01:05:08;;;;;;;;;;;;;;;18.08;48.70;100715.81;5038895;28;20040;-78
2021/05/20 01:07:53;;;;;;;0.80;0.40;;;;;;;18.04;48.60;100712.19;5029426;28;19921;-78
2021/05/20 01:10:38;;;;;;;2.05;0.50;;;;;;;18.02;48.73;100706.28;5031557;28;20409;-79
2021/05/20 01:13:23;;;;;;;;;;;;;;;18.08;48.48;100719.34;5037765;28;20037;-78
2021/05/20 01:16:12;;;;;;;0.28;0.22;;;;;;;18.06;48.50;100715.38;5034173;28;19913;-79
2021/05/20 01:18:57;;;;;;;1.00;0.30;;;;;;;18.05;48.43;100705.53;5032298;28;20056;-79
2021/05/20 01:21:44;;;;;;;0.20;0.20;;;;;;;18.04;48.33;100712.97;4923743;22;20052;-79
2021/05/20 01:24:29;;;;;;;;;;;;;;;18.08;48.45;100710.31;5061121;28;20056;-79
2021/05/20 01:27:15;;;;;;;0.47;0.30;;;;;;;18.03;48.29;100705.88;5048243;28;19917;-79
2021/05/20 01:30:00;;;;;;;0.70;0.38;;;;;;;18.04;48.46;100709.44;5059704;28;20048;-79
2021/05/20 01:33:04;;;;;;;5.00;0.30;;;;;;;18.05;48.48;100709.06;5058400;28;20052;-79
2021/05/20 01:36:08;;;;;;;0.93;0.30;;;;;;;18.03;48.25;100713.38;5056305;28;20052;-79
2021/05/20 01:38:58;;;;;;;0.68;0.50;;;;;;;18.00;48.28;100708.56;5060941;28;20064;-79
2021/05/20 01:41:43;;;;;;;1.23;0.45;;;;;;;18.02;48.00;100711.78;5055488;28;20048;-79
2021/05/20 01:44:46;;;;;;;0.20;0.20;;;;;;;18.03;48.03;100707.88;5058090;28;20060;-79
2021/05/20 01:47:31;;;;;;;0.60;0.30;;;;;;;18.00;48.11;100720.38;5060946;28;20052;-79
2021/05/20 01:50:16;;;;;;;;;;;;;;;18.04;48.15;100721.25;5063263;28;20048;-79
2021/05/20 01:53:02;;;;;;;0.28;0.20;;;;;;;18.03;47.89;100718.88;5063781;28;19916;-79
2021/05/20 01:56:06;;;;;;;2.40;0.40;;;;;;;18.04;48.11;100725.94;5065835;28;20417;-80
2021/05/20 01:58:51;;;;;;;8.50;0.80;;;;;;;18.02;48.12;100717.28;5060402;28;20052;-80
2021/05/20 02:01:37;;;;;;;0.40;0.30;;;;;;;18.03;48.28;100722.41;5065102;28;20039;-79
2021/05/20 02:04:22;;;;;;;2.58;0.30;;;;;;;18.03;48.21;100721.63;5067904;28;20739;-80
2021/05/20 02:07:07;;;;;;;1.60;0.32;;;;;;;18.03;48.15;100730.66;5067357;28;21569;-79
2021/05/20 02:09:53;;;;;;;0.35;0.30;;;;;;;18.03;48.36;100733.41;5064417;28;20067;-80
2021/05/20 02:12:38;;;;;;;;;;;;;;;18.05;48.39;100728.34;5070872;28;20036;-80
2021/05/20 02:15:22;;;;;;;1.38;0.45;;;;;;;18.01;48.45;100721.19;5067207;28;19920;-79
2021/05/20 02:18:07;;;;;;;;;;;;;;;18.04;48.39;100731.44;5055206;28;20048;-78
2021/05/20 02:20:52;;;;;;;2.63;0.40;;;;;;;18.01;48.76;100727.47;5056293;28;19920;-79
2021/05/20 02:23:56;;;;;;;0.28;0.28;;;;;;;18.05;48.54;100724.78;5067873;28;20290;-79
2021/05/20 02:26:41;;;;;;;2.50;0.40;;;;;;;18.03;48.68;100718.88;5063623;28;20051;-79
2021/05/20 02:29:28;;;;;;;1.30;0.30;;;;;;;18.00;48.47;100725.88;5064428;28;20049;-79
2021/05/20 02:35:16;;;;;;;0.68;0.20;;;;;;;18.02;48.56;100728.28;5032138;28;20040;-80
2021/05/20 02:38:01;;;;;;;;;;;;;;;18.02;48.49;100728.28;5045809;28;20420;-79
2021/05/20 02:40:45;;;;;;;3.92;0.30;;;;;;;18.00;48.54;100734.16;5047630;28;20296;-79
2021/05/20 02:43:32;;;;;;;;;;;;;;;18.01;48.17;100730.25;5069241;28;20044;-78
2021/05/20 02:46:17;;;;;;;2.83;0.30;;;;;;;18.00;48.03;100727.84;5066211;28;19912;-79
2021/05/20 02:49:02;;;;;;;;;;;;;;;18.03;48.26;100721.63;5066433;28;20055;-82
2021/05/20 02:51:47;;;;;;;38.85;7.00;;;;;;;18.05;48.51;100722.03;5060314;28;19921;-82
2021/05/20 02:54:33;;;;;;;;;;;;;;;18.09;48.00;100723.69;5058117;28;20060;-83
2021/05/20 02:57:18;;;;;;;8.13;0.70;;;;;;;18.01;47.55;100726.69;5064792;28;20292;-84
2021/05/20 03:00:04;;;;;;;;;;;;;;;18.00;47.56;100727.84;5056504;28;20060;-82
2021/05/20 03:02:50;;;;;;;1.08;0.30;;;;;;;17.98;47.55;100722.69;5063423;28;20288;-82
2021/05/20 03:05:35;;;;;;;0.52;0.30;;;;;;;17.94;47.43;100719.09;5044624;28;20036;-82
2021/05/20 03:08:20;;;;;;;;;;;;;;;17.99;47.39;100727.03;5057502;28;20412;-81
2021/05/20 03:11:04;;;;;;;4.28;0.57;;;;;;;18.00;47.17;100719.59;5066803;28;19913;-80
2021/05/20 03:13:49;;;;;;;;;;;;;;;17.96;46.85;100727.78;5065116;28;20052;-80
2021/05/20 03:16:34;;;;;;;1.85;0.28;;;;;;;17.91;46.75;100719.81;5057768;28;20295;-82
2021/05/20 03:19:20;;;;;;;1.27;0.57;;;;;;;17.90;46.64;100720.97;5068389;28;20044;-81
2021/05/20 03:22:08;;;;;;;0.77;0.28;;;;;;;17.87;46.40;100717.00;5063063;28;20052;-81
2021/05/20 03:24:53;;;;;;;1.55;0.47;;;;;;;17.88;46.21;100724.09;5047906;28;20519;-80
2021/05/20 03:27:38;;;;;;;;;;;;;;;17.87;46.04;100718.97;5068622;28;20051;-82
2021/05/20 03:30:24;;;;;;;1.52;0.60;;;;;;;17.83;45.86;100718.09;5066933;28;19912;-82
2021/05/20 03:33:09;;;;;;;1.27;0.22;;;;;;;17.85;45.75;100724.81;5069234;28;20028;-80
2021/05/20 03:36:13;;;;;;;2.20;0.30;;;;;;;17.84;45.51;100722.44;5071543;28;20051;-82
2021/05/20 03:38:58;;;;;;;0.63;0.30;;;;;;;17.83;45.41;100727.13;5073687;28;20052;-82
2021/05/20 03:41:43;;;;;;;0.57;0.17;;;;;;;17.83;45.20;100724.38;5066322;28;20535;-80
2021/05/20 03:44:28;;;;;;;;;;;;;;;17.82;44.99;100733.81;5049720;28;20052;-81
2021/05/20 03:47:13;;;;;;;0.30;0.25;;;;;;;17.80;44.73;100730.63;5069779;28;19913;-81
2021/05/20 03:50:17;;;;;;;5.07;0.40;;;;;;;17.79;44.76;100737.28;5068133;28;20048;-82
2021/05/20 03:53:02;;;;;;;0.55;0.30;;;;;;;17.80;44.44;100738.88;5053816;28;20167;-81
2021/05/20 03:55:48;;;;;;;0.85;0.25;;;;;;;17.76;44.51;100735.25;5072454;28;20044;-82
2021/05/20 03:58:33;;;;;;;0.25;0.20;;;;;;;17.80;44.75;100738.88;5070018;28;20359;-81
2021/05/20 04:01:18;;;;;;;;;;;;;;;17.80;44.27;100741.63;5071521;28;20056;-81
2021/05/20 04:04:03;;;;;;;0.30;0.30;;;;;;;17.80;44.24;100746.34;5073077;28;19916;-81
2021/05/20 04:06:48;;;;;;;;;;;;;;;17.80;44.30;100755.38;5070544;28;20060;-81
2021/05/20 04:12:36;;;;;;;0.85;0.47;;;;;;;17.76;44.40;100757.28;5073124;28;20048;-82
2021/05/20 04:15:22;;;;;;;1.77;0.20;;;;;;;17.73;44.56;100757.97;5071068;28;20083;-81
2021/05/20 04:18:08;;;;;;;;;;;;;;;17.80;44.32;100760.88;5066793;28;20048;-82
2021/05/20 04:20:54;;;;;;;7.10;1.52;;;;;;;17.82;44.30;100757.78;5051390;28;19913;-83
2021/05/20 04:23:43;;;;;;;1.08;0.30;;;;;;;17.79;44.20;100752.97;5069330;28;20048;-83
2021/05/20 04:26:28;;;;;;;0.25;0.20;;;;;;;17.80;44.16;100760.88;5072925;28;20046;-82
2021/05/20 04:29:13;;;;;;;;;;;;;;;17.81;44.15;100762.47;5082119;28;20044;-82
2021/05/20 04:31:58;;;;;;;1.20;0.30;;;;;;;17.41;44.74;100754.56;5066376;28;20376;-80
2021/05/20 04:37:47;;;;;;;0.90;0.25;;;;;;;17.04;44.00;100758.81;5068470;28;20131;-80
2021/05/20 04:40:51;;;;;;;0.93;0.20;;;;;;;16.95;44.53;100760.97;5067638;28;20538;-79
2021/05/20 04:43:36;;;;;;;3.50;0.20;;;;;;;16.82;43.05;100768.50;5069300;28;20044;-79
2021/05/20 04:46:21;;;;;;;2.08;0.43;;;;;;;16.66;42.62;100774.00;5068473;28;20052;-79
2021/05/20 04:49:11;;;;;;;;;;;;;;;16.53;42.88;100766.16;5064867;28;20527;-80
2021/05/20 04:51:56;;;;;;;0.68;0.30;;;;;;;16.52;43.54;100767.31;5065505;28;19913;-80
2021/05/20 04:54:41;;;;;;;2.13;1.05;;;;;;;16.44;44.17;100771.03;5068941;28;20052;-80
2021/05/20 04:57:26;;;;;;;;;;;;;;;16.57;44.79;100773.34;5079521;28;20073;-79
2021/05/20 05:00:12;;;;;;;2.30;0.52;;;;;;;16.55;45.05;100780.34;5070101;28;19913;-80
2021/05/20 05:02:59;;;;;;;1.05;0.50;;;;;;;16.57;44.69;100775.28;5067319;28;20056;-80
2021/05/20 05:05:44;;;;;;;8.70;1.05;;;;;;;16.40;44.93;100787.44;5049101;28;20040;-80
2021/05/20 05:08:30;;;;;;;8.80;0.77;;;;;;;16.58;46.10;100785.13;5067322;28;20043;-85
2021/05/20 05:11:15;;;;;;;1.33;0.57;;;;;;;16.93;44.96;100794.28;5067205;28;20044;-84
2021/05/20 05:14:00;;;;;;;4.75;0.80;;;;;;;16.94;44.81;100798.63;5066237;28;20055;-84
2021/05/20 05:16:45;;;;;;;;;;;;;;;17.15;44.67;100800.28;5077032;28;20064;-83
2021/05/20 05:19:30;;;;;;;5.32;0.73;;;;;;;16.98;44.87;100809.69;5070980;28;19912;-82
2021/05/20 05:22:15;;;;;;;5.82;1.33;;;;;;;16.96;44.23;100804.56;5058759;28;20044;-81
2021/05/20 05:25:00;;;;;;;;;;;;;;;16.92;45.04;100803.66;5068286;28;20055;-81
2021/05/20 05:27:45;;;;;;;9.43;1.40;;;;;;;17.00;44.69;100802.69;5072785;28;19913;-81
2021/05/20 05:30:29;;;;;;;;;;;;;;;17.11;44.72;100805.69;5047155;28;20044;-81
2021/05/20 05:33:15;;;;;;;7.07;1.40;;;;;;;17.10;44.54;100815.09;5070499;28;19912;-82
2021/05/20 05:36:20;;;;;;;4.03;1.20;;;;;;;16.86;44.95;100821.59;5063883;28;20540;-82
2021/05/20 05:39:06;;;;;;;6.85;1.88;;;;;;;16.81;45.35;100816.31;5053249;28;20400;-81
2021/05/20 05:44:55;;;;;;;7.40;1.70;;;;;;;16.79;45.85;100821.41;5066509;28;20044;-81
2021/05/20 05:47:39;;;;;;;3.83;1.40;;;;;;;16.95;46.43;100830.44;5066220;28;20048;-82
2021/05/20 05:50:34;;;;;;;4.70;1.60;;;;;;;16.98;44.96;100837.94;5053046;28;20430;-81
2021/05/20 05:53:19;;;;;;;6.20;1.25;;;;;;;16.65;44.40;100843.00;5065915;28;20048;-81
2021/05/20 05:59:26;;;;;;;3.22;1.45;;;;;;;16.60;44.44;100846.81;5068031;28;20055;-81
2021/05/20 06:02:32;;;;;;;3.15;0.82;;;;;;;16.77;45.93;100853.09;5065650;28;20047;-81
2021/05/20 06:05:18;;;;;;;4.45;1.83;;;;;;;17.12;46.16;100853.22;5069369;28;20052;-80
2021/05/20 06:08:23;;;;;;;4.90;2.10;;;;;;;17.32;44.44;100855.63;5074730;28;20047;-79
2021/05/20 06:11:08;;;;;;;8.13;1.95;;;;;;;17.44;43.79;100858.28;5068732;28;20047;-80
2021/05/20 06:13:54;;;;;;;;;;;;;;;17.48;43.34;100850.13;5068562;28;20047;-79
2021/05/20 06:16:43;;;;;;;2.92;1.30;;;;;;;17.41;40.83;100850.78;5072164;28;19924;-80
2021/05/20 06:19:46;;;;;;;7.20;1.95;;;;;;;17.63;40.85;100846.56;5050137;28;20052;-79
2021/05/20 06:22:31;;;;;;;4.85;1.00;;;;;;;17.71;43.27;100864.03;5047876;28;20049;-80
2021/05/20 06:25:16;;;;;;;5.18;1.73;;;;;;;17.78;41.91;100861.41;5045882;28;20049;-80
2021/05/20 06:28:06;;;;;;;4.22;1.55;;;;;;;17.73;39.81;100865.25;5050080;28;20075;-81
2021/05/20 06:30:52;;;;;;;10.15;1.50;;;;;;;17.78;42.37;100864.16;5047686;28;20048;-80
2021/05/20 06:33:37;;;;;;;9.05;2.13;;;;;;;18.02;38.81;100876.88;5045104;28;20052;-81
2021/05/20 06:36:24;;;;;;;4.28;1.48;;;;;;;18.03;41.74;100884.00;5050091;28;20523;-80
2021/05/20 06:39:09;;;;;;;4.72;1.10;;;;;;;17.97;43.21;100885.44;5049122;28;20053;-81
2021/05/20 06:41:55;;;;;;;;;;;;;;;18.04;43.52;100885.56;5045709;28;20408;-81
2021/05/20 06:44:41;;;;;;;2.97;1.17;;;;;;;18.10;42.46;100889.63;5049877;28;19912;-80
2021/05/20 06:47:26;;;;;;;4.18;1.30;;;;;;;18.12;41.81;100890.88;5047641;28;20052;-81
2021/05/20 06:50:11;;;;;;;6.35;1.23;;;;;;;18.17;42.79;100895.28;5045867;28;20056;-80
2021/05/20 06:52:56;;;;;;;4.05;2.17;;;;;;;18.23;41.89;100899.34;5049561;28;20409;-80
2021/05/20 06:55:41;;;;;;;;;;;;;;;18.20;42.62;100900.06;5047477;28;20060;-81
2021/05/20 07:01:30;;;;;;;5.55;1.00;;;;;;;18.20;43.16;100900.84;5047057;28;20044;-79
2021/05/20 07:04:16;;;;;;;;;;;;;;;18.31;42.43;100903.84;5047384;28;20060;-80
2021/05/20 07:07:03;;;;;;;5.13;1.40;;;;;;;18.29;43.01;100897.88;5049355;28;19913;-81
2021/05/20 07:09:48;;;;;;;4.65;1.10;;;;;;;18.23;43.02;100905.66;5052819;28;20060;-80
2021/05/20 07:12:35;;;;;;;1.98;1.05;;;;;;;18.22;41.79;100908.75;5051043;28;20052;-81
2021/05/20 07:15:20;;;;;;;2.70;1.40;;;;;;;18.35;42.95;100915.72;5049340;28;20056;-81
2021/05/20 07:18:05;;;;;;;1.20;0.73;;;;;;;18.39;43.15;100913.81;5038133;28;20056;-81
2021/05/20 07:20:50;;;;;;;2.72;1.30;;;;;;;18.35;43.04;100913.75;5034373;22;20539;-77
2021/05/20 07:26:58;;;;;;;3.92;1.13;;;;;;;18.67;39.41;100919.94;5062799;28;20044;-78
2021/05/20 07:29:43;;;;;;;;;;;;;;;18.80;40.94;100921.34;5067608;28;20052;-77
2021/05/20 07:32:28;;;;;;;4.15;1.50;;;;;;;18.95;37.48;100919.63;5042162;28;19913;-78
2021/05/20 07:35:13;;;;;;;2.22;1.00;;;;;;;18.76;41.67;100914.19;5046104;28;20048;-77
2021/05/20 07:37:58;;;;;;;;;;;;;;;19.04;38.76;100917.47;5041649;28;20056;-77
2021/05/20 07:44:06;;;;;;;3.60;0.70;;;;;;;19.09;37.50;100916.34;5045018;28;20052;-78
2021/05/20 07:46:53;;;;;;;4.03;1.23;;;;;;;19.05;39.39;100919.03;5041259;28;20413;-77
2021/05/20 07:49:39;;;;;;;2.03;0.95;;;;;;;19.14;38.20;100921.56;5043364;28;20052;-77
2021/05/20 07:55:27;;;;;;;1.77;0.70;;;;;;;18.94;40.10;100918.06;5040292;28;20520;-78
2021/05/20 07:58:12;;;;;;;1.73;0.52;;;;;;;18.95;41.27;100922.38;5042537;28;20069;-76
2021/05/20 08:01:01;;;;;;;1.50;0.82;;;;;;;19.30;37.03;100929.72;5045131;28;20048;-77
2021/05/20 08:03:53;;;;;;;3.70;0.60;;;;;;;19.30;38.76;100936.00;5042199;28;20124;-77
2021/05/20 08:06:55;;;;;;;1.38;0.88;;;;;;;19.10;40.53;100931.72;5045132;28;20044;-78
2021/05/20 08:09:47;;;;;;;2.75;0.90;;;;;;;19.24;40.21;100931.97;5042644;28;20045;-77
2021/05/20 08:12:32;;;;;;;2.72;0.90;;;;;;;19.35;39.71;100935.69;5040510;28;20047;-77
2021/05/20 08:15:17;;;;;;;1.67;0.73;;;;;;;19.45;39.00;100932.34;5043007;28;20413;-78
2021/05/20 08:18:03;;;;;;;5.32;1.05;;;;;;;19.73;33.31;100934.75;5036366;28;20049;-77
2021/05/20 08:20:48;;;;;;;0.75;0.40;;;;;;;19.73;37.71;100931.19;5043534;28;20064;-78
2021/05/20 08:23:34;;;;;;;1.98;0.85;;;;;;;19.72;37.81;100935.09;5042719;28;20413;-77
2021/05/20 08:26:24;;;;;;;5.82;0.70;;;;;;;19.41;38.89;100931.44;5040757;28;20048;-78
2021/05/20 08:29:09;;;;;;;2.80;0.60;;;;;;;19.40;39.01;100946.41;5043647;28;20044;-77
2021/05/20 08:31:55;;;;;;;1.88;0.95;;;;;;;19.54;37.44;100941.16;5040235;28;20116;-77
2021/05/20 08:34:40;;;;;;;3.08;0.75;;;;;;;19.62;35.48;100937.34;5043628;28;20118;-79
2021/05/20 08:37:24;;;;;;;2.15;0.60;;;;;;;19.76;36.92;100935.97;5038378;28;20083;-79
2021/05/20 08:40:12;;;;;;;5.25;0.70;;;;;;;19.74;36.33;100938.31;5050191;28;20048;-79
2021/05/20 08:43:15;;;;;;;4.22;1.17;;;;;;;19.91;33.97;100940.53;5042963;28;20053;-77
2021/05/20 08:46:00;;;;;;;2.58;0.52;;;;;;;19.78;33.72;100934.44;5044475;28;20060;-77
2021/05/20 08:48:45;;;;;;;1.88;0.57;;;;;;;19.85;32.51;100939.25;5039876;28;20060;-78
2021/05/20 08:51:30;;;;;;;4.13;2.35;;;;;;;20.00;32.20;100946.56;5040763;28;20048;-77
2021/05/20 08:54:35;;;;;;;4.68;0.73;;;;;;;20.00;35.15;100946.56;5044351;28;20053;-77
2021/05/20 08:57:23;;;;;;;2.72;0.70;;;;;;;19.59;36.12;100943.63;5041433;28;20048;-78
2021/05/20 09:00:28;;;;;;;3.25;0.50;;;;;;;19.31;38.34;100947.81;5035913;28;20048;-79
2021/05/20 09:03:14;;;;;;;1.30;0.75;;;;;;;19.56;38.12;100949.06;5039120;28;20394;-78
2021/05/20 09:06:36;;;;;;;1.75;0.65;;;;;;;19.71;37.95;100939.81;5037399;28;20352;-77
2021/05/20 09:09:24;;;;;;;1.48;0.50;;;;;;;20.14;32.23;100943.22;5039325;28;20060;-76
2021/05/20 09:12:48;;;;;;;1.50;0.30;;;;;;;20.42;31.86;100941.63;5038167;28;20053;-76
2021/05/20 09:15:39;;;;;;;6.80;1.33;;;;;;;20.15;35.39;100948.38;5042228;28;20053;-77
2021/05/20 09:18:28;;;;;;;2.78;0.55;;;;;;;19.99;36.05;100950.50;5039980;28;20056;-77
2021/05/20 09:21:13;;;;;;;5.05;0.45;;;;;;;20.16;32.96;100938.91;5035171;28;20072;-77
2021/05/20 09:23:58;;;;;;;3.92;0.80;;;;;;;20.42;31.05;100949.13;5039999;28;20049;-78
2021/05/20 09:26:43;;;;;;;3.20;0.55;;;;;;;20.54;27.91;100948.88;5038227;28;20516;-77
2021/05/20 09:30:10;;;;;;;2.33;0.68;;;;;;;20.70;32.07;100951.44;5036774;28;20056;-77
2021/05/20 09:32:59;;;;;;;1.52;0.35;;;;;;;20.25;33.28;100947.72;5043366;28;20044;-76
2021/05/20 09:35:49;;;;;;;1.02;0.30;;;;;;;20.71;30.48;100955.78;5048189;28;20072;-77
2021/05/20 09:38:37;;;;;;;1.73;0.40;;;;;;;20.72;31.73;100946.34;5039042;28;20516;-78
2021/05/20 09:41:22;;;;;;;4.97;0.45;;;;;;;20.76;27.47;100955.44;5044489;28;20521;-79
2021/05/20 09:44:30;;;;;;;6.75;0.75;;;;;;;20.88;27.84;100955.16;5043882;28;20051;-77
2021/05/20 09:47:15;;;;;;;2.17;0.40;;;;;;;20.78;28.85;100953.09;5054922;28;20071;-78
2021/05/20 09:50:21;;;;;;;0.88;0.20;;;;;;;21.01;25.28;100955.72;5054349;28;20425;-77
2021/05/20 09:53:09;;;;;;;2.67;0.40;;;;;;;20.96;24.25;100950.53;5055123;28;20059;-78
2021/05/20 09:55:56;;;;;;;0.65;0.22;;;;;;;21.06;24.66;100956.16;5058674;28;20524;-79
2021/05/20 09:58:53;;;;;;;2.05;0.38;;;;;;;21.11;25.52;100955.81;5056496;28;20052;-80
2021/05/20 10:01:40;;;;;;;0.73;0.30;;;;;;;20.90;27.57;100958.34;5053300;28;20531;-80
2021/05/20 10:04:29;;;;;;;3.15;0.40;;;;;;;20.80;27.74;100961.81;5067838;28;20052;-81
2021/05/20 10:07:28;;;;;;;4.82;0.43;;;;;;;20.77;27.56;100959.81;5070405;28;20043;-80
2021/05/20 10:10:14;;;;;;;2.08;0.13;;;;;;;20.88;23.97;100953.19;5067782;28;20051;-81
2021/05/20 10:13:10;;;;;;;2.78;0.40;;;;;;;21.21;25.38;100951.59;5070767;28;20052;-81
2021/05/20 10:15:57;;;;;;;5.05;0.40;;;;;;;21.31;24.35;100956.41;5068175;28;20435;-80
2021/05/20 10:18:42;;;;;;;2.45;0.28;;;;;;;21.52;24.69;100953.84;5056551;28;20048;-79
2021/05/20 10:21:30;;;;;;;3.92;0.25;;;;;;;21.50;25.55;100958.16;5068726;28;20419;-81
2021/05/20 10:24:15;;;;;;;1.85;0.52;;;;;;;21.23;25.88;100946.47;5067339;28;20516;-81
2021/05/20 10:27:00;;;;;;;0.30;0.20;;;;;;;21.15;24.65;100951.13;5070172;28;20060;-79
2021/05/20 10:29:45;;;;;;;2.55;0.28;;;;;;;20.65;28.04;100946.25;5067836;28;20048;-80
2021/05/20 10:32:31;;;;;;;0.93;0.63;;;;;;;20.81;27.91;100946.81;5064634;28;20052;-80
2021/05/20 10:35:16;;;;;;;0.43;0.20;;;;;;;20.77;27.63;100949.56;5067882;28;20408;-79
2021/05/20 10:38:01;;;;;;;0.30;0.20;;;;;;;21.14;22.21;100938.47;5065588;28;20056;-80
2021/05/20 10:40:47;;;;;;;1.65;0.30;;;;;;;20.93;24.97;100939.03;5063329;28;20519;-79
2021/05/20 10:43:32;;;;;;;2.78;0.30;;;;;;;20.84;27.75;100946.03;5046197;28;20051;-78
2021/05/20 10:46:18;;;;;;;2.00;0.28;;;;;;;20.65;28.35;100937.94;5065261;28;20048;-80
2021/05/20 10:49:17;;;;;;;0.50;0.20;;;;;;;20.29;29.06;100937.50;5067830;28;20052;-79
2021/05/20 10:52:03;;;;;;;0.30;0.22;;;;;;;20.15;29.63;100931.78;5049371;28;20048;-80
2021/05/20 10:55:03;;;;;;;1.48;0.32;;;;;;;20.36;29.53;100940.38;5064916;28;20055;-79
2021/05/20 10:57:48;;;;;;;1.55;0.50;;;;;;;20.43;28.35;100942.41;5060347;28;20123;-78
2021/05/20 11:00:40;;;;;;;2.03;0.40;;;;;;;20.38;28.66;100934.47;5063754;28;20056;-80
2021/05/20 11:04:14;;;;;;;1.60;0.50;;;;;;;20.55;28.21;100942.19;5060975;28;20048;-79
2021/05/20 11:07:30;;;;;;;0.75;0.30;;;;;;;20.39;29.01;100931.34;5057796;28;20060;-81
2021/05/20 11:10:15;;;;;;;0.60;0.30;;;;;;;20.57;29.02;100928.00;5058222;28;20040;-79
2021/05/20 11:13:00;;;;;;;0.47;0.30;;;;;;;20.24;30.14;100935.06;5062121;28;20060;-79
2021/05/20 11:19:24;;;;;;;2.25;0.40;;;;;;;20.10;30.43;100934.09;5040601;28;20045;-81
2021/05/20 11:22:10;;;;;;;1.03;0.23;;;;;;;20.36;30.58;100932.09;5037894;28;20512;-79
2021/05/20 11:25:10;;;;;;;0.50;0.38;;;;;;;20.71;28.83;100933.69;5037366;28;20072;-80
2021/05/20 11:27:56;;;;;;;6.75;2.17;;;;;;;20.56;29.38;100934.69;5037531;28;20044;-81
2021/05/20 11:30:41;;;;;;;5.97;0.43;;;;;;;20.55;29.49;100925.59;5037640;28;20057;-78
2021/05/20 11:33:30;;;;;;;0.75;0.30;;;;;;;20.89;27.93;100929.13;5041009;28;20524;-81
2021/05/20 11:36:15;;;;;;;1.60;0.40;;;;;;;20.75;28.44;100934.50;5044503;28;20450;-78
2021/05/20 11:39:02;;;;;;;1.17;0.30;;;;;;;20.67;29.37;100930.84;5025982;28;20048;-79
2021/05/20 11:41:48;;;;;;;0.65;0.20;;;;;;;20.21;30.96;100923.97;5036760;28;20052;-79
2021/05/20 11:44:33;;;;;;;1.52;0.75;;;;;;;19.87;31.90;100931.38;5040826;28;20112;-78
2021/05/20 11:47:20;;;;;;;;;;;;;;;19.82;32.16;100937.22;5038372;28;20045;-76
2021/05/20 11:50:12;;;;;;;0.55;0.30;;;;;;;20.00;32.04;100930.81;5035594;28;19913;-78
2021/05/20 11:52:57;;;;;;;0.40;0.30;;;;;;;19.86;31.75;100924.31;5039773;28;20056;-77
2021/05/20 11:55:43;;;;;;;1.13;0.30;;;;;;;19.96;31.23;100923.66;5038893;28;20040;-78
2021/05/20 11:58:28;;;;;;;0.10;0.10;;;;;;;20.15;31.24;100919.94;5036270;28;20056;-77
2021/05/20 12:01:21;;;;;;;0.20;0.10;;;;;;;19.94;31.52;100920.47;5036142;28;20056;-78
2021/05/20 12:04:07;;;;;;;1.50;0.30;;;;;;;20.33;29.68;100916.25;5038762;28;20040;-79
2021/05/20 12:06:51;;;;;;;;;;;;;;;19.87;30.67;100920.34;5037382;28;20413;-78
2021/05/20 12:09:36;;;;;;;0.40;0.20;;;;;;;19.75;30.76;100920.59;5040298;28;19913;-81
2021/05/20 12:12:23;;;;;;;0.50;0.50;;;;;;;19.68;31.72;100928.75;5036141;28;20052;-77
2021/05/20 12:18:40;;;;;;;1.77;0.82;;;;;;;20.20;30.84;100923.19;5044335;28;20056;-80
2021/05/20 12:21:26;;;;;;;5.68;0.20;;;;;;;19.90;31.18;100923.19;5041256;28;20107;-80
2021/05/20 12:24:11;;;;;;;1.08;0.17;;;;;;;19.79;31.01;100921.44;5044623;28;20048;-79
2021/05/20 12:30:17;;;;;;;0.38;0.10;;;;;;;19.80;31.02;100920.25;5042610;28;20052;-79
2021/05/20 12:36:38;;;;;;;1.73;0.25;;;;;;;19.77;30.70;100921.78;5041686;28;20044;-77
2021/05/20 12:39:23;;;;;;;0.25;0.10;;;;;;;20.13;29.20;100912.03;5039023;28;20429;-78
2021/05/20 12:42:15;;;;;;;0.20;0.20;;;;;;;20.14;29.98;100918.34;5036679;28;20049;-77
2021/05/20 12:45:26;;;;;;;2.13;0.20;;;;;;;20.46;26.82;100919.59;5035224;28;20060;-77
2021/05/20 12:48:21;;;;;;;0.15;0.10;;;;;;;20.24;29.39;100918.50;5040136;28;20055;-79
2021/05/20 12:51:15;;;;;;;1.70;0.20;;;;;;;19.96;29.54;100918.91;5032216;28;20045;-81
2021/05/20 12:54:07;;;;;;;2.17;0.23;;;;;;;20.08;29.18;100920.66;5036203;28;20048;-77
2021/05/20 12:57:20;;;;;;;0.35;0.20;;;;;;;20.28;29.18;100924.06;5018642;28;20063;-78
2021/05/20 13:00:05;;;;;;;0.88;0.38;;;;;;;19.92;29.88;100918.06;5038016;28;20049;-78
2021/05/20 13:03:01;;;;;;;1.48;0.30;;;;;;;19.80;30.55;100920.25;5049123;28;20064;-78
2021/05/20 13:05:48;;;;;;;1.30;0.30;;;;;;;19.96;30.58;100920.91;5035088;28;20048;-79
2021/05/20 13:08:37;;;;;;;0.63;0.32;;;;;;;20.08;30.81;100929.72;5037347;28;20045;-79
2021/05/20 13:11:29;;;;;;;1.33;0.30;;;;;;;19.89;30.34;100932.63;5035115;28;20060;-78
2021/05/20 13:14:23;;;;;;;5.28;0.38;;;;;;;20.18;29.58;100920.00;5038351;28;20041;-78
2021/05/20 13:17:43;;;;;;;8.35;0.50;;;;;;;20.23;29.82;100919.66;5037970;28;20056;-81
2021/05/20 13:23:24;;;;;;;2.22;0.70;;;;;;;20.08;29.59;100912.34;4980340;28;20058;-78
2021/05/20 13:26:10;;;;;;;4.30;1.70;;;;;;;20.14;29.81;100919.16;4982595;28;20038;-78
2021/05/20 13:28:56;;;;;;;1.98;0.68;;;;;;;20.13;29.67;100917.56;4981234;28;20062;-79
2021/05/20 13:31:42;;;;;;;;;;;;;;;20.07;30.29;100930.09;4995532;28;20041;-79
2021/05/20 13:34:27;;;;;;;2.05;0.65;;;;;;;19.97;30.76;100936.25;5001665;28;19914;-79
2021/05/20 13:37:14;;;;;;;1.23;0.40;;;;;;;19.74;31.05;100930.03;4999825;28;20057;-79
2021/05/20 13:40:03;;;;;;;1.83;0.43;;;;;;;19.60;31.31;100933.38;4999023;28;20046;-79
2021/05/20 13:42:49;;;;;;;2.35;0.40;;;;;;;19.73;31.41;100933.94;4997426;28;20053;-79
2021/05/20 13:45:34;;;;;;;1.05;0.95;;;;;;;19.60;31.06;100933.38;4986638;28;20042;-79
2021/05/20 13:48:37;;;;;;;1.05;0.45;;;;;;;19.72;31.53;100927.63;4981117;28;20054;-78
2021/05/20 13:51:22;;;;;;;1.75;0.60;;;;;;;19.55;31.87;100923.47;4982142;28;20694;-78
2021/05/20 13:54:07;;;;;;;;;;;;;;;19.88;30.23;100933.78;4991900;28;20045;-78
2021/05/20 13:57:12;;;;;;;1.70;0.60;;;;;;;19.68;31.01;100914.94;4983218;28;19918;-78
2021/05/20 13:59:57;;;;;;;1.08;0.55;;;;;;;19.46;31.26;100911.84;4981409;28;20049;-77
2021/05/20 14:02:42;;;;;;;;;;;;;;;19.50;32.18;100907.22;4984686;28;20061;-78
2021/05/20 14:05:28;;;;;;;0.52;0.40;;;;;;;19.49;31.81;100910.34;4980071;28;19914;-79
2021/05/20 14:08:13;;;;;;;0.75;0.47;;;;;;;19.48;31.61;100905.97;4979068;28;20046;-78
2021/05/20 14:11:01;;;;;;;0.75;0.52;;;;;;;19.56;31.74;100910.44;4983557;28;20407;-79